createdAt,value
2022-10-04T00:00:41.907Z,9.59
2022-10-04T00:03:49.239Z,9.57
2022-10-04T00:06:21.456Z,9.55
2022-10-04T00:08:58.308Z,9.52
2022-10-04T00:11:35.246Z,9.50
2022-10-04T00:14:27.073Z,9.53
2022-10-04T00:16:55.113Z,9.52
2022-10-04T00:19:47.225Z,9.44
2022-10-04T00:22:25.863Z,9.53
2022-10-04T00:25:07.935Z,9.53
2022-10-04T00:27:37.600Z,9.53
2022-10-04T00:30:04.482Z,9.54
2022-10-04T00:32:40.579Z,9.48
2022-10-04T00:35:25.791Z,9.51
2022-10-04T00:38:17.224Z,9.54
2022-10-04T00:40:55.485Z,9.49
2022-10-04T00:43:30.435Z,9.45
2022-10-04T00:46:18.806Z,9.40
2022-10-04T00:48:55.534Z,9.41
2022-10-04T00:51:39.528Z,9.42
2022-10-04T00:54:30.408Z,9.36
2022-10-04T00:57:21.591Z,9.33
2022-10-04T00:59:54.734Z,9.35
2022-10-04T01:03:17.123Z,9.36
2022-10-04T01:05:51.289Z,9.29
2022-10-04T01:08:39.708Z,9.34
2022-10-04T01:11:13.531Z,9.32
2022-10-04T01:13:45.908Z,9.33
2022-10-04T01:16:27.643Z,9.32
2022-10-04T01:18:54.800Z,9.33
2022-10-04T01:21:21.584Z,9.34
2022-10-04T01:23:58.468Z,9.34
2022-10-04T01:26:32.442Z,9.30
2022-10-04T01:29:02.171Z,9.25
2022-10-04T01:31:31.223Z,9.24
2022-10-04T01:34:00.120Z,9.17
2022-10-04T01:36:28.034Z,9.19
2022-10-04T01:38:55.814Z,9.14
2022-10-04T01:41:47.107Z,9.06
2022-10-04T01:44:33.005Z,9.03
2022-10-04T01:47:06.305Z,9.00
2022-10-04T01:49:36.793Z,8.98
2022-10-04T01:52:35.921Z,8.94
2022-10-04T01:55:09.645Z,8.88
2022-10-04T01:58:03.158Z,8.86
2022-10-04T02:01:14.951Z,8.78
2022-10-04T02:04:09.324Z,8.79
2022-10-04T02:06:40.276Z,8.72
2022-10-04T02:09:12.463Z,8.68
2022-10-04T02:11:42.365Z,8.62
2022-10-04T02:14:16.271Z,8.64
2022-10-04T02:16:46.313Z,8.65
2022-10-04T02:19:15.409Z,8.63
2022-10-04T02:21:43.547Z,8.60
2022-10-04T02:24:12.264Z,8.58
2022-10-04T02:26:39.543Z,8.56
2022-10-04T02:29:06.483Z,8.58
2022-10-04T02:31:52.312Z,8.56
2022-10-04T02:34:19.471Z,8.54
2022-10-04T02:36:47.853Z,8.53
2022-10-04T02:39:25.127Z,8.51
2022-10-04T02:42:03.008Z,8.49
2022-10-04T02:45:00.535Z,8.45
2022-10-04T02:47:36.930Z,8.42
2022-10-04T02:50:30.958Z,8.41
2022-10-04T02:53:05.384Z,8.45
2022-10-04T02:55:33.418Z,8.45
2022-10-04T02:58:00.796Z,8.45
2022-10-04T03:00:31.150Z,8.45
2022-10-04T03:03:30.170Z,8.55
2022-10-04T03:06:02.376Z,8.44
2022-10-04T03:08:32.495Z,8.57
2022-10-04T03:11:00.110Z,8.59
2022-10-04T03:13:27.835Z,8.60
2022-10-04T03:15:55.326Z,8.67
2022-10-04T03:18:23.137Z,8.66
2022-10-04T03:20:50.397Z,8.67
2022-10-04T03:23:19.978Z,8.68
2022-10-04T03:26:00.448Z,8.71
2022-10-04T03:28:28.629Z,8.73
2022-10-04T03:30:55.938Z,8.74
2022-10-04T03:33:25.794Z,8.72
2022-10-04T03:35:55.888Z,8.68
2022-10-04T03:38:26.532Z,8.71
2022-10-04T03:40:59.462Z,8.72
2022-10-04T03:43:30.539Z,8.68
2022-10-04T03:46:00.326Z,8.66
2022-10-04T03:48:50.383Z,8.64
2022-10-04T03:51:21.444Z,8.60
2022-10-04T03:53:57.510Z,8.57
2022-10-04T03:56:31.486Z,8.53
2022-10-04T03:58:59.036Z,8.48
2022-10-04T04:01:47.689Z,8.42
2022-10-04T04:04:50.590Z,8.43
2022-10-04T04:07:24.831Z,8.37
2022-10-04T04:10:21.657Z,8.37
2022-10-04T04:13:04.891Z,8.34
2022-10-04T04:15:34.368Z,8.32
2022-10-04T04:18:05.777Z,8.27
2022-10-04T04:20:37.434Z,8.26
2022-10-04T04:23:16.207Z,8.24
2022-10-04T04:25:47.293Z,8.23
2022-10-04T04:28:51.668Z,8.20
2022-10-04T04:31:24.337Z,8.20
2022-10-04T04:34:02.215Z,8.19
2022-10-04T04:36:31.409Z,8.19
2022-10-04T04:39:27.107Z,8.19
2022-10-04T04:41:54.176Z,8.19
2022-10-04T04:44:21.667Z,8.23
2022-10-04T04:46:48.830Z,8.27
2022-10-04T04:49:19.089Z,8.31
2022-10-04T04:51:51.566Z,8.32
2022-10-04T04:54:24.114Z,8.36
2022-10-04T04:56:53.121Z,8.36
2022-10-04T04:59:23.059Z,8.36
2022-10-04T05:01:50.572Z,8.38
2022-10-04T05:04:21.388Z,8.41
2022-10-04T05:07:04.461Z,8.38
2022-10-04T05:09:36.463Z,8.42
2022-10-04T05:12:16.116Z,8.46
2022-10-04T05:14:49.579Z,8.47
2022-10-04T05:17:24.144Z,8.52
2022-10-04T05:19:52.810Z,8.64
2022-10-04T05:22:23.138Z,8.66
2022-10-04T05:24:54.844Z,8.68
2022-10-04T05:27:33.089Z,8.74
2022-10-04T05:30:13.435Z,8.80
2022-10-04T05:32:46.143Z,8.88
2022-10-04T05:35:23.897Z,8.96
2022-10-04T05:37:53.490Z,9.05
2022-10-04T05:40:32.636Z,9.15
2022-10-04T05:42:59.691Z,9.23
2022-10-04T05:45:29.147Z,9.29
2022-10-04T05:47:57.323Z,9.37
2022-10-04T05:50:40.766Z,9.40
2022-10-04T05:53:07.474Z,9.47
2022-10-04T05:55:51.210Z,9.54
2022-10-04T05:58:35.576Z,9.60
2022-10-04T06:01:02.387Z,9.65
2022-10-04T06:04:00.050Z,9.70
2022-10-04T06:06:40.408Z,9.76
2022-10-04T06:09:09.830Z,9.84
2022-10-04T06:11:44.520Z,9.93
2022-10-04T06:14:31.258Z,10.02
2022-10-04T06:17:16.000Z,10.12
2022-10-04T06:20:02.748Z,10.17
2022-10-04T06:22:30.790Z,10.21
2022-10-04T06:25:03.339Z,10.26
2022-10-04T06:27:47.020Z,10.33
2022-10-04T06:30:16.213Z,10.36
2022-10-04T06:32:49.255Z,10.43
2022-10-04T06:35:23.250Z,10.49
2022-10-04T06:38:12.062Z,10.58
2022-10-04T06:40:57.028Z,10.63
2022-10-04T06:43:35.963Z,10.65
2022-10-04T06:46:07.281Z,10.73
2022-10-04T06:49:04.688Z,10.84
2022-10-04T06:52:08.299Z,10.98
2022-10-04T06:54:38.648Z,10.99
2022-10-04T06:57:48.735Z,11.04
2022-10-04T07:00:24.297Z,11.09
2022-10-04T07:02:55.001Z,11.08
2022-10-04T07:05:45.367Z,11.21
2022-10-04T07:08:34.308Z,11.25
2022-10-04T07:11:14.963Z,11.34
2022-10-04T07:14:04.166Z,11.41
2022-10-04T07:16:48.579Z,11.44
2022-10-04T07:19:25.014Z,11.52
2022-10-04T07:22:08.467Z,11.59
2022-10-04T07:24:44.333Z,11.63
2022-10-04T07:27:17.553Z,11.54
2022-10-04T07:29:46.785Z,11.53
2022-10-04T07:32:21.713Z,11.56
2022-10-04T07:35:14.839Z,11.55
2022-10-04T07:38:10.958Z,11.48
2022-10-04T07:40:41.594Z,11.35
2022-10-04T07:43:22.575Z,11.32
2022-10-04T07:45:50.330Z,11.34
2022-10-04T07:48:23.546Z,11.33
2022-10-04T07:51:15.684Z,11.31
2022-10-04T07:54:07.098Z,11.25
2022-10-04T07:56:47.708Z,11.25
2022-10-04T07:59:35.060Z,11.24
2022-10-04T08:02:07.971Z,11.30
2022-10-04T08:04:59.021Z,11.36
2022-10-04T08:08:04.189Z,11.37
2022-10-04T08:10:49.121Z,11.43
2022-10-04T08:13:45.559Z,11.39
2022-10-04T08:16:49.033Z,11.52
2022-10-04T08:19:21.633Z,11.65
2022-10-04T08:22:04.278Z,11.87
2022-10-04T08:24:57.059Z,12.09
2022-10-04T08:27:39.743Z,12.19
2022-10-04T08:30:15.761Z,12.32
2022-10-04T08:33:01.867Z,12.37
2022-10-04T08:35:39.611Z,12.42
2022-10-04T08:38:18.537Z,12.43
2022-10-04T08:41:18.700Z,12.37
2022-10-04T08:44:23.409Z,12.32
2022-10-04T08:46:56.313Z,12.33
2022-10-04T08:50:01.442Z,12.27
2022-10-04T08:52:37.473Z,12.29
2022-10-04T08:55:37.437Z,12.30
2022-10-04T08:58:49.172Z,12.30
2022-10-04T09:02:12.349Z,12.28
2022-10-04T09:05:14.620Z,12.53
2022-10-04T09:08:26.408Z,13.00
2022-10-04T09:11:11.504Z,13.55
2022-10-04T09:13:44.208Z,13.84
2022-10-04T09:16:20.062Z,13.94
2022-10-04T09:18:56.265Z,13.91
2022-10-04T09:21:38.233Z,13.98
2022-10-04T09:24:43.866Z,13.91
2022-10-04T09:27:36.780Z,13.90
2022-10-04T09:30:15.378Z,13.48
2022-10-04T09:33:00.318Z,13.37
2022-10-04T09:35:44.916Z,13.49
2022-10-04T09:38:36.586Z,13.28
2022-10-04T09:41:22.106Z,13.26
2022-10-04T09:44:19.939Z,13.24
2022-10-04T09:47:31.996Z,13.13
2022-10-04T09:50:14.374Z,13.31
2022-10-04T09:53:03.042Z,13.58
2022-10-04T09:56:02.384Z,13.86
2022-10-04T09:58:51.705Z,14.06
2022-10-04T10:01:39.400Z,14.33
2022-10-04T10:04:24.603Z,14.33
2022-10-04T10:06:54.169Z,14.54
2022-10-04T10:09:57.177Z,14.88
2022-10-04T10:13:05.447Z,15.12
2022-10-04T10:15:58.356Z,15.10
2022-10-04T10:18:40.631Z,14.63
2022-10-04T10:21:21.413Z,14.26
2022-10-04T10:24:20.479Z,14.18
2022-10-04T10:26:47.334Z,13.90
2022-10-04T10:29:17.034Z,13.81
2022-10-04T10:32:02.523Z,13.87
2022-10-04T10:34:47.380Z,13.93
2022-10-04T10:37:45.921Z,14.10
2022-10-04T10:40:32.783Z,14.32
2022-10-04T10:43:03.339Z,14.36
2022-10-04T10:45:44.929Z,14.30
2022-10-04T10:48:22.530Z,14.04
2022-10-04T10:51:11.146Z,14.11
2022-10-04T10:54:00.370Z,14.23
2022-10-04T10:56:37.508Z,14.38
2022-10-04T10:59:50.719Z,14.27
2022-10-04T11:02:50.326Z,14.04
2022-10-04T11:05:45.573Z,14.11
2022-10-04T11:08:30.035Z,14.04
2022-10-04T11:11:14.793Z,14.05
2022-10-04T11:13:54.876Z,14.04
2022-10-04T11:16:47.694Z,14.26
2022-10-04T11:19:53.936Z,14.56
2022-10-04T11:22:49.509Z,14.77
2022-10-04T11:25:36.270Z,14.95
2022-10-04T11:28:20.929Z,15.26
2022-10-04T11:31:01.567Z,15.27
2022-10-04T11:33:46.935Z,15.45
2022-10-04T11:36:19.338Z,15.50
2022-10-04T11:39:01.437Z,15.23
2022-10-04T11:41:50.455Z,14.97
2022-10-04T11:44:35.130Z,14.78
2022-10-04T11:47:08.778Z,14.73
2022-10-04T11:49:44.631Z,14.69
2022-10-04T11:52:30.183Z,14.71
2022-10-04T11:55:35.295Z,14.62
2022-10-04T11:58:16.676Z,14.63
2022-10-04T12:01:30.498Z,14.59
2022-10-04T12:04:16.134Z,14.65
2022-10-04T12:07:26.834Z,14.70
2022-10-04T12:10:11.120Z,14.71
2022-10-04T12:12:52.933Z,14.88
2022-10-04T12:15:52.164Z,15.28
2022-10-04T12:18:46.312Z,15.55
2022-10-04T12:21:27.723Z,16.03
2022-10-04T12:24:28.435Z,16.05
2022-10-04T12:27:12.493Z,16.13
2022-10-04T12:30:02.767Z,16.17
2022-10-04T12:32:36.925Z,16.45
2022-10-04T12:35:18.659Z,16.68
2022-10-04T12:38:08.033Z,17.05
2022-10-04T12:40:45.599Z,16.84
2022-10-04T12:43:30.985Z,16.81
2022-10-04T12:46:17.676Z,16.27
2022-10-04T12:48:54.032Z,16.27
2022-10-04T12:51:27.939Z,16.44
2022-10-04T12:54:24.010Z,16.68
2022-10-04T12:57:14.763Z,16.49
2022-10-04T12:59:44.598Z,16.38
2022-10-04T13:02:28.389Z,16.38
2022-10-04T13:04:59.331Z,16.30
2022-10-04T13:07:28.793Z,16.01
2022-10-04T13:10:29.220Z,16.08
2022-10-04T13:13:34.354Z,15.93
2022-10-04T13:19:30.201Z,15.80
2022-10-04T13:22:26.929Z,15.65
2022-10-04T13:25:25.965Z,15.56
2022-10-04T13:28:02.614Z,15.39
2022-10-04T13:30:43.020Z,15.23
2022-10-04T13:33:10.138Z,15.19
2022-10-04T13:36:14.419Z,15.35
2022-10-04T13:39:02.650Z,15.60
2022-10-04T13:41:38.212Z,15.64
2022-10-04T13:44:10.866Z,15.98
2022-10-04T13:46:40.443Z,16.04
2022-10-04T13:49:29.754Z,15.64
2022-10-04T13:52:39.330Z,15.69
2022-10-04T13:55:24.700Z,15.61
2022-10-04T13:58:01.473Z,15.30
2022-10-04T14:01:13.133Z,15.06
2022-10-04T14:04:12.097Z,14.76
2022-10-04T14:06:49.459Z,14.50
2022-10-04T14:10:06.992Z,14.36
2022-10-04T14:12:45.982Z,14.30
2022-10-04T14:15:25.883Z,14.23
2022-10-04T14:18:26.249Z,13.99
2022-10-04T14:21:18.994Z,13.92
2022-10-04T14:24:10.462Z,13.84
2022-10-04T14:26:58.638Z,13.97
2022-10-04T14:29:31.495Z,13.99
2022-10-04T14:32:08.546Z,14.21
2022-10-04T14:35:12.424Z,14.47
2022-10-04T14:37:50.102Z,14.49
2022-10-04T14:40:35.566Z,14.43
2022-10-04T14:43:34.841Z,14.40
2022-10-04T14:46:05.100Z,14.25
2022-10-04T14:49:05.323Z,14.08
2022-10-04T14:51:44.418Z,13.83
2022-10-04T14:54:21.521Z,13.68
2022-10-04T14:57:06.551Z,13.46
2022-10-04T14:59:59.639Z,13.33
2022-10-04T15:02:32.518Z,13.22
2022-10-04T15:05:20.060Z,13.11
2022-10-04T15:08:11.583Z,12.97
2022-10-04T15:10:48.347Z,12.92
2022-10-04T15:13:32.115Z,12.84
2022-10-04T15:16:15.918Z,12.76
2022-10-04T15:18:52.569Z,12.69
2022-10-04T15:21:48.071Z,12.66
2022-10-04T15:24:17.840Z,12.60
2022-10-04T15:27:22.025Z,12.57
2022-10-04T15:29:51.887Z,12.51
2022-10-04T15:32:36.045Z,12.47
2022-10-04T15:35:36.727Z,12.26
2022-10-04T15:38:45.053Z,12.34
2022-10-04T15:41:18.896Z,12.28
2022-10-04T15:44:14.218Z,12.21
2022-10-04T15:46:57.279Z,12.19
2022-10-04T15:49:27.296Z,12.14
2022-10-04T15:52:13.516Z,12.10
2022-10-04T15:55:19.558Z,12.00
2022-10-04T15:58:39.104Z,11.94
2022-10-04T16:01:19.951Z,11.87
2022-10-04T16:04:10.233Z,11.86
2022-10-04T16:07:19.667Z,11.80
2022-10-04T16:10:16.885Z,11.73
2022-10-04T16:13:17.622Z,11.70
2022-10-04T16:15:50.564Z,11.64
2022-10-04T16:18:17.336Z,11.61
2022-10-04T16:21:16.080Z,11.56
2022-10-04T16:23:44.524Z,11.49
2022-10-04T16:26:34.283Z,11.43
2022-10-04T16:29:22.499Z,11.43
2022-10-04T16:32:12.320Z,11.42
2022-10-04T16:34:51.251Z,11.42
2022-10-04T16:37:24.017Z,11.39
2022-10-04T16:40:20.082Z,11.34
2022-10-04T16:42:56.086Z,11.29
2022-10-04T16:45:32.982Z,11.26
2022-10-04T16:48:06.192Z,11.23
2022-10-04T16:50:59.169Z,11.20
2022-10-04T16:53:49.172Z,11.19
2022-10-04T16:56:19.919Z,11.13
2022-10-04T16:59:04.700Z,11.16
2022-10-04T17:01:54.920Z,11.09
2022-10-04T17:04:31.125Z,11.14
2022-10-04T17:07:02.498Z,11.10
2022-10-04T17:09:48.031Z,11.15
2022-10-04T17:12:24.320Z,11.13
2022-10-04T17:15:09.311Z,11.11
2022-10-04T17:17:45.041Z,11.12
2022-10-04T17:20:29.729Z,11.04
2022-10-04T17:23:29.139Z,11.10
2022-10-04T17:26:14.215Z,11.09
2022-10-04T17:29:01.009Z,11.04
2022-10-04T17:31:35.796Z,11.02
2022-10-04T17:34:39.935Z,10.97
2022-10-04T17:37:57.443Z,10.98
2022-10-04T17:40:43.836Z,10.94
2022-10-04T17:43:22.636Z,10.93
2022-10-04T17:46:07.612Z,10.91
2022-10-04T17:49:48.881Z,10.87
2022-10-04T17:52:38.953Z,10.85
2022-10-04T17:55:28.986Z,10.83
2022-10-04T17:58:40.964Z,10.81
2022-10-04T18:01:17.190Z,10.79
2022-10-04T18:03:47.173Z,10.71
2022-10-04T18:06:36.265Z,10.74
2022-10-04T18:09:19.695Z,10.72
2022-10-04T18:11:51.682Z,10.65
2022-10-04T18:14:30.420Z,10.73
2022-10-04T18:17:03.449Z,10.73
2022-10-04T18:19:45.161Z,10.75
2022-10-04T18:22:15.239Z,10.76
2022-10-04T18:24:44.401Z,10.75
2022-10-04T18:27:25.341Z,10.76
2022-10-04T18:30:15.688Z,10.76
2022-10-04T18:32:48.991Z,10.73
2022-10-04T18:35:31.156Z,10.79
2022-10-04T18:38:21.117Z,10.79
2022-10-04T18:40:58.110Z,10.77
2022-10-04T18:43:30.573Z,10.76
2022-10-04T18:46:14.531Z,10.73
2022-10-04T18:48:54.513Z,10.71
2022-10-04T18:51:26.433Z,10.69
2022-10-04T18:54:30.944Z,10.65
2022-10-04T18:57:54.973Z,10.60
2022-10-04T19:00:41.150Z,10.55
2022-10-04T19:03:40.299Z,10.49
2022-10-04T19:06:10.312Z,10.46
2022-10-04T19:08:53.579Z,10.37
2022-10-04T19:11:23.133Z,10.36
2022-10-04T19:14:37.523Z,10.32
2022-10-04T19:17:25.113Z,10.27
2022-10-04T19:19:56.795Z,10.25
2022-10-04T19:22:35.443Z,10.23
2022-10-04T19:25:21.449Z,10.19
2022-10-04T19:28:15.618Z,10.13
2022-10-04T19:30:54.230Z,10.00
2022-10-04T19:33:45.933Z,10.07
2022-10-04T19:36:24.514Z,10.03
2022-10-04T19:39:12.615Z,9.97
2022-10-04T19:41:55.167Z,9.94
2022-10-04T19:44:52.244Z,9.88
2022-10-04T19:47:31.117Z,9.88
2022-10-04T19:50:21.400Z,9.83
2022-10-04T19:53:03.753Z,9.82
2022-10-04T19:55:48.800Z,9.73
2022-10-04T19:58:40.978Z,9.71
2022-10-04T20:01:12.701Z,9.72
2022-10-04T20:03:40.070Z,9.68
2022-10-04T20:06:07.736Z,9.62
2022-10-04T20:08:49.675Z,9.58
2022-10-04T20:11:21.212Z,9.54
2022-10-04T20:14:03.300Z,9.51
2022-10-04T20:16:49.229Z,9.46
2022-10-04T20:19:20.438Z,9.41
2022-10-04T20:21:47.423Z,9.34
2022-10-04T20:24:41.668Z,9.29
2022-10-04T20:27:23.827Z,9.28
2022-10-04T20:29:53.382Z,9.25
2022-10-04T20:32:30.089Z,9.21
2022-10-04T20:34:58.373Z,9.17
2022-10-04T20:38:27.416Z,9.15
2022-10-04T20:40:47.660Z,9.10
2022-10-04T20:43:14.409Z,9.07
2022-10-04T20:45:44.844Z,8.99
2022-10-04T20:48:17.328Z,8.96
2022-10-04T20:50:49.402Z,8.94
2022-10-04T20:53:16.168Z,8.89
2022-10-04T20:55:45.614Z,8.87
2022-10-04T20:58:18.076Z,8.84
2022-10-04T21:00:54.197Z,8.81
2022-10-04T21:03:22.087Z,8.73
2022-10-04T21:06:10.551Z,8.74
2022-10-04T21:08:38.495Z,8.71
2022-10-04T21:11:25.571Z,8.71
2022-10-04T21:13:55.494Z,8.70
2022-10-04T21:16:39.087Z,8.69
2022-10-04T21:19:33.931Z,8.67
2022-10-04T21:22:02.536Z,8.66
2022-10-04T21:24:42.245Z,8.64
2022-10-04T21:27:24.985Z,8.64
2022-10-04T21:29:54.646Z,8.59
2022-10-04T21:32:22.187Z,8.61
2022-10-04T21:34:53.452Z,8.56
2022-10-04T21:37:21.123Z,8.55
2022-10-04T21:39:48.063Z,8.50
2022-10-04T21:42:14.922Z,8.43
2022-10-04T21:44:41.807Z,8.44
2022-10-04T21:47:09.112Z,8.39
2022-10-04T21:49:36.183Z,8.35
2022-10-04T21:52:03.194Z,8.32
2022-10-04T21:54:29.966Z,8.34
2022-10-04T21:56:56.895Z,8.32
2022-10-04T21:59:24.152Z,8.36
2022-10-04T22:01:50.999Z,8.32
2022-10-04T22:04:18.169Z,8.33
2022-10-04T22:06:45.420Z,8.35
2022-10-04T22:09:12.466Z,8.39
2022-10-04T22:11:39.273Z,8.43
2022-10-04T22:14:06.134Z,8.47
2022-10-04T22:16:32.953Z,8.45
2022-10-04T22:18:59.835Z,8.40
2022-10-04T22:21:26.732Z,8.51
2022-10-04T22:23:53.560Z,8.46
2022-10-04T22:26:22.869Z,8.49
2022-10-04T22:28:53.455Z,8.52
2022-10-04T22:31:28.661Z,8.50
2022-10-04T22:33:56.816Z,8.52
2022-10-04T22:36:23.863Z,8.53
2022-10-04T22:38:53.635Z,8.52
2022-10-04T22:41:20.499Z,8.49
2022-10-04T22:43:49.073Z,8.45
2022-10-04T22:46:18.498Z,8.49
2022-10-04T22:48:48.256Z,8.45
2022-10-04T22:51:15.551Z,8.47
2022-10-04T22:53:47.943Z,8.42
2022-10-04T22:56:15.445Z,8.45
2022-10-04T22:58:42.844Z,8.38
2022-10-04T23:01:18.321Z,8.43
2022-10-04T23:03:47.116Z,8.37
2022-10-04T23:06:14.577Z,8.42
2022-10-04T23:08:42.404Z,8.40
2022-10-04T23:11:10.480Z,8.39
2022-10-04T23:13:37.962Z,8.35
2022-10-04T23:16:16.948Z,8.35
2022-10-04T23:18:43.928Z,8.35
2022-10-04T23:21:19.890Z,8.32
2022-10-04T23:23:47.914Z,8.29
2022-10-04T23:26:22.755Z,8.23
2022-10-04T23:28:50.331Z,8.22
2022-10-04T23:31:23.152Z,8.21
2022-10-04T23:33:52.157Z,8.15
2022-10-04T23:36:19.252Z,8.14
2022-10-04T23:38:54.319Z,8.11
2022-10-04T23:41:21.151Z,8.06
2022-10-04T23:43:49.499Z,8.05
2022-10-04T23:46:19.577Z,7.97
2022-10-04T23:48:46.895Z,7.87
2022-10-04T23:51:18.679Z,7.84
2022-10-04T23:53:48.319Z,7.79
2022-10-04T23:56:25.241Z,7.74
2022-10-04T23:58:55.153Z,7.68
